RYR9LH EGSS-LEBL
Flight info
| Callsign | RYR9LH |
|---|---|
| Flight time | 1h 47m |
| Altitude | 33000 |
| Route | NUGBO M183 SILVA Q41 COWLY UT71 VAPID UN859 SOPIL DCT BALAN DCT EVPOK DCT NARAK DCT GAI DCT LOMRA DCT ROCAN DCT PUMAL |
| Aircraft | B738/M-SDFGIJ1LRWYZ/SB1 |
Departure
| Time | 2026-05-08 08:27 |
|---|---|
| Airport | London Stansted Airport (EGSS) |
Arrival
| Time | 2026-05-08 10:15 |
|---|---|
| Airport | Josep Tarradellas Barcelona-El Prat Airport (LEBL) |
| Time | Latitude | Longitude | Altitude | Speed | Heading |
|---|---|---|---|---|---|
| 2026-05-08 07:44 | 51.89345 | 0.26039 | 356 ft | 0 kts | 223° |
| 2026-05-08 08:14 | 51.89355 | 0.26054 | 353 ft | 4 kts | 223° |
| 2026-05-08 08:14 | 51.89373 | 0.26081 | 351 ft | 2 kts | 223° |
| 2026-05-08 08:14 | 51.89384 | 0.26102 | 355 ft | 4 kts | 273° |
| 2026-05-08 08:15 | 51.89375 | 0.26129 | 351 ft | 4 kts | 313° |
| 2026-05-08 08:15 | 51.89365 | 0.26147 | 358 ft | 0 kts | 313° |
| 2026-05-08 08:19 | 51.89367 | 0.26143 | 351 ft | 0 kts | 313° |
| 2026-05-08 08:19 | 51.89367 | 0.26142 | 351 ft | 2 kts | 313° |
| 2026-05-08 08:19 | 51.89395 | 0.26095 | 350 ft | 8 kts | 313° |
| 2026-05-08 08:20 | 51.89447 | 0.26004 | 353 ft | 15 kts | 313° |
| 2026-05-08 08:20 | 51.89519 | 0.25880 | 352 ft | 15 kts | 315° |
| 2026-05-08 08:20 | 51.89601 | 0.25779 | 348 ft | 14 kts | 305° |
| 2026-05-08 08:20 | 51.89574 | 0.25645 | 351 ft | 14 kts | 222° |
| 2026-05-08 08:21 | 51.89502 | 0.25538 | 348 ft | 15 kts | 223° |
| 2026-05-08 08:21 | 51.89419 | 0.25414 | 348 ft | 16 kts | 223° |
| 2026-05-08 08:21 | 51.89338 | 0.25293 | 348 ft | 16 kts | 223° |
| 2026-05-08 08:21 | 51.89257 | 0.25158 | 348 ft | 19 kts | 236° |
| 2026-05-08 08:22 | 51.89178 | 0.24979 | 348 ft | 20 kts | 225° |
| 2026-05-08 08:22 | 51.89079 | 0.24833 | 348 ft | 19 kts | 223° |
| 2026-05-08 08:22 | 51.88977 | 0.24680 | 348 ft | 21 kts | 223° |
| 2026-05-08 08:22 | 51.88873 | 0.24524 | 351 ft | 20 kts | 223° |
| 2026-05-08 08:23 | 51.88774 | 0.24375 | 351 ft | 19 kts | 223° |
| 2026-05-08 08:23 | 51.88677 | 0.24231 | 351 ft | 19 kts | 223° |
| 2026-05-08 08:23 | 51.88582 | 0.24087 | 348 ft | 19 kts | 223° |
| 2026-05-08 08:23 | 51.88489 | 0.23947 | 348 ft | 18 kts | 223° |
| 2026-05-08 08:24 | 51.88397 | 0.23809 | 349 ft | 18 kts | 223° |
| 2026-05-08 08:24 | 51.88306 | 0.23673 | 353 ft | 18 kts | 223° |
| 2026-05-08 08:24 | 51.88218 | 0.23541 | 348 ft | 17 kts | 223° |
| 2026-05-08 08:24 | 51.88132 | 0.23412 | 353 ft | 17 kts | 223° |
| 2026-05-08 08:25 | 51.88041 | 0.23276 | 348 ft | 19 kts | 223° |
| 2026-05-08 08:25 | 51.87941 | 0.23127 | 352 ft | 20 kts | 222° |
| 2026-05-08 08:25 | 51.87846 | 0.22983 | 350 ft | 15 kts | 223° |
| 2026-05-08 08:25 | 51.87815 | 0.22876 | 348 ft | 10 kts | 301° |
| 2026-05-08 08:26 | 51.87866 | 0.22796 | 349 ft | 11 kts | 313° |
| 2026-05-08 08:26 | 51.87927 | 0.22688 | 341 ft | 13 kts | 313° |
| 2026-05-08 08:26 | 51.87958 | 0.22673 | 344 ft | 4 kts | 26° |
| 2026-05-08 08:26 | 51.87996 | 0.22724 | 337 ft | 15 kts | 43° |
| 2026-05-08 08:27 | 51.88238 | 0.23087 | 335 ft | 81 kts | 43° |
| 2026-05-08 08:27 | 51.88801 | 0.23929 | 332 ft | 137 kts | 41° |
| 2026-05-08 08:27 | 51.89592 | 0.25091 | 543 ft | 163 kts | 44° |
| 2026-05-08 08:27 | 51.90423 | 0.26321 | 1233 ft | 161 kts | 46° |
| 2026-05-08 08:28 | 51.91243 | 0.27590 | 1878 ft | 163 kts | 47° |
| 2026-05-08 08:28 | 51.92092 | 0.28878 | 2494 ft | 169 kts | 42° |
| 2026-05-08 08:28 | 51.93148 | 0.29799 | 3120 ft | 180 kts | 17° |
| 2026-05-08 08:28 | 51.94479 | 0.29968 | 3493 ft | 204 kts | 351° |
| 2026-05-08 08:29 | 51.95824 | 0.29117 | 3990 ft | 218 kts | 324° |
| 2026-05-08 08:29 | 51.96826 | 0.27209 | 4345 ft | 228 kts | 292° |
| 2026-05-08 08:29 | 51.97249 | 0.24611 | 4567 ft | 251 kts | 276° |
| 2026-05-08 08:29 | 51.97479 | 0.21722 | 4999 ft | 268 kts | 275° |
| 2026-05-08 08:30 | 51.97727 | 0.18695 | 5740 ft | 273 kts | 276° |
| 2026-05-08 08:30 | 51.97996 | 0.15630 | 6530 ft | 277 kts | 277° |
| 2026-05-08 08:30 | 51.98618 | 0.09553 | 8351 ft | 270 kts | 279° |
| 2026-05-08 08:31 | 51.98911 | 0.06536 | 9136 ft | 272 kts | 272° |
| 2026-05-08 08:31 | 51.98679 | 0.03490 | 9941 ft | 272 kts | 257° |
| 2026-05-08 08:31 | 51.98263 | 0.00471 | 10537 ft | 281 kts | 257° |
| 2026-05-08 08:31 | 51.97832 | -0.02763 | 10703 ft | 305 kts | 258° |
| 2026-05-08 08:32 | 51.97373 | -0.06259 | 10906 ft | 325 kts | 258° |
| 2026-05-08 08:32 | 51.96897 | -0.09912 | 11401 ft | 334 kts | 257° |
| 2026-05-08 08:32 | 51.96415 | -0.13613 | 12076 ft | 338 kts | 257° |
| 2026-05-08 08:32 | 51.95925 | -0.17365 | 12805 ft | 342 kts | 257° |
| 2026-05-08 08:33 | 51.95429 | -0.21162 | 13514 ft | 346 kts | 257° |
| 2026-05-08 08:33 | 51.94932 | -0.24954 | 14172 ft | 351 kts | 257° |
| 2026-05-08 08:33 | 51.94422 | -0.28838 | 14854 ft | 354 kts | 257° |
| 2026-05-08 08:33 | 51.93905 | -0.32758 | 15565 ft | 357 kts | 257° |
| 2026-05-08 08:34 | 51.93384 | -0.36711 | 16259 ft | 360 kts | 256° |
| 2026-05-08 08:34 | 51.92856 | -0.40694 | 16937 ft | 364 kts | 256° |
| 2026-05-08 08:34 | 51.92322 | -0.44719 | 17611 ft | 368 kts | 256° |
| 2026-05-08 08:34 | 51.91777 | -0.48810 | 18265 ft | 372 kts | 256° |
| 2026-05-08 08:35 | 51.91226 | -0.52937 | 18844 ft | 376 kts | 256° |
| 2026-05-08 08:35 | 51.90671 | -0.57082 | 19435 ft | 379 kts | 256° |
| 2026-05-08 08:35 | 51.90108 | -0.61275 | 20013 ft | 382 kts | 256° |
| 2026-05-08 08:35 | 51.89540 | -0.65497 | 20579 ft | 385 kts | 256° |
| 2026-05-08 08:36 | 51.88967 | -0.69742 | 21139 ft | 389 kts | 256° |
| 2026-05-08 08:36 | 51.88385 | -0.74040 | 21694 ft | 392 kts | 256° |
| 2026-05-08 08:36 | 51.87799 | -0.78355 | 22238 ft | 395 kts | 256° |
| 2026-05-08 08:36 | 51.87205 | -0.82720 | 22761 ft | 399 kts | 256° |
| 2026-05-08 08:37 | 51.86605 | -0.87117 | 23283 ft | 402 kts | 256° |
| 2026-05-08 08:37 | 51.85990 | -0.91553 | 23771 ft | 405 kts | 254° |
| 2026-05-08 08:37 | 51.84882 | -0.95719 | 24153 ft | 407 kts | 236° |
| 2026-05-08 08:37 | 51.82971 | -0.99076 | 24587 ft | 409 kts | 218° |
| 2026-05-08 08:38 | 51.80518 | -1.01424 | 24988 ft | 413 kts | 202° |
| 2026-05-08 08:38 | 51.77750 | -1.02551 | 25309 ft | 419 kts | 190° |
| 2026-05-08 08:38 | 51.74846 | -1.03258 | 25649 ft | 424 kts | 189° |
| 2026-05-08 08:38 | 51.71915 | -1.03915 | 25989 ft | 428 kts | 189° |
| 2026-05-08 08:39 | 51.68941 | -1.04614 | 26334 ft | 432 kts | 189° |
| 2026-05-08 08:39 | 51.66976 | -1.05102 | 26563 ft | 434 kts | 190° |
| 2026-05-08 08:39 | 51.63968 | -1.05872 | 26910 ft | 438 kts | 190° |
| 2026-05-08 08:39 | 51.60931 | -1.06500 | 27249 ft | 442 kts | 184° |
| 2026-05-08 08:40 | 51.57841 | -1.06471 | 27593 ft | 446 kts | 179° |
| 2026-05-08 08:40 | 51.54723 | -1.06256 | 27912 ft | 450 kts | 178° |
| 2026-05-08 08:40 | 51.51582 | -1.06015 | 28219 ft | 453 kts | 178° |
| 2026-05-08 08:40 | 51.48416 | -1.05790 | 28522 ft | 457 kts | 179° |
| 2026-05-08 08:41 | 51.45225 | -1.05591 | 28826 ft | 460 kts | 179° |
| 2026-05-08 08:41 | 51.42007 | -1.05411 | 29118 ft | 463 kts | 179° |
| 2026-05-08 08:41 | 51.38784 | -1.05238 | 29408 ft | 467 kts | 179° |
| 2026-05-08 08:41 | 51.35520 | -1.05063 | 29693 ft | 470 kts | 179° |
| 2026-05-08 08:42 | 51.32286 | -1.04888 | 29958 ft | 473 kts | 179° |
| 2026-05-08 08:42 | 51.28978 | -1.04697 | 30201 ft | 476 kts | 178° |
| 2026-05-08 08:42 | 51.25685 | -1.04002 | 30421 ft | 480 kts | 169° |
| 2026-05-08 08:42 | 51.22473 | -1.02552 | 30743 ft | 481 kts | 159° |
| 2026-05-08 08:43 | 51.19407 | -1.00404 | 31160 ft | 479 kts | 156° |
| 2026-05-08 08:43 | 51.16392 | -0.98141 | 31533 ft | 478 kts | 155° |
| 2026-05-08 08:43 | 51.13386 | -0.95874 | 31845 ft | 478 kts | 156° |
| 2026-05-08 08:43 | 51.10364 | -0.93618 | 32180 ft | 478 kts | 156° |
| 2026-05-08 08:44 | 51.07357 | -0.91406 | 32527 ft | 477 kts | 156° |
| 2026-05-08 08:44 | 51.04341 | -0.89213 | 32850 ft | 477 kts | 157° |
| 2026-05-08 08:44 | 51.01313 | -0.87026 | 33182 ft | 476 kts | 157° |
| 2026-05-08 08:44 | 50.98299 | -0.84857 | 33503 ft | 476 kts | 157° |
| 2026-05-08 08:45 | 50.95290 | -0.82692 | 33822 ft | 475 kts | 157° |
| 2026-05-08 08:45 | 50.92280 | -0.80527 | 34116 ft | 475 kts | 157° |
| 2026-05-08 08:45 | 50.89270 | -0.78364 | 34400 ft | 474 kts | 157° |
| 2026-05-08 08:45 | 50.86263 | -0.76198 | 34723 ft | 472 kts | 156° |
| 2026-05-08 08:46 | 50.83425 | -0.73730 | 34999 ft | 472 kts | 149° |
| 2026-05-08 08:46 | 50.80660 | -0.70939 | 35263 ft | 471 kts | 148° |
| 2026-05-08 08:46 | 50.77921 | -0.68100 | 35533 ft | 470 kts | 148° |
| 2026-05-08 08:46 | 50.75192 | -0.65260 | 35814 ft | 469 kts | 148° |
| 2026-05-08 08:47 | 50.72466 | -0.62439 | 36084 ft | 467 kts | 148° |
| 2026-05-08 08:47 | 50.69745 | -0.59647 | 36343 ft | 466 kts | 149° |
| 2026-05-08 08:47 | 50.67023 | -0.56874 | 36584 ft | 466 kts | 149° |
| 2026-05-08 08:47 | 50.64297 | -0.54113 | 36830 ft | 464 kts | 149° |
| 2026-05-08 08:48 | 50.61587 | -0.51376 | 37069 ft | 464 kts | 149° |
| 2026-05-08 08:48 | 50.58851 | -0.48621 | 37059 ft | 467 kts | 149° |
| 2026-05-08 08:48 | 50.53384 | -0.43125 | 37066 ft | 465 kts | 149° |
| 2026-05-08 08:49 | 50.47986 | -0.37708 | 37072 ft | 461 kts | 149° |
| 2026-05-08 08:49 | 50.42579 | -0.32297 | 37072 ft | 459 kts | 149° |
| 2026-05-08 08:50 | 50.37203 | -0.26932 | 37072 ft | 457 kts | 149° |
| 2026-05-08 08:50 | 50.31846 | -0.21600 | 37077 ft | 457 kts | 149° |
| 2026-05-08 08:51 | 50.26471 | -0.16266 | 37082 ft | 458 kts | 149° |
| 2026-05-08 08:51 | 50.21064 | -0.10912 | 37080 ft | 460 kts | 149° |
| 2026-05-08 08:52 | 50.15644 | -0.05559 | 37082 ft | 462 kts | 150° |
| 2026-05-08 08:52 | 50.10162 | -0.00465 | 37074 ft | 462 kts | 158° |
| 2026-05-08 08:53 | 50.04075 | 0.02538 | 37089 ft | 458 kts | 169° |
| 2026-05-08 08:53 | 49.97847 | 0.04859 | 37077 ft | 460 kts | 169° |
| 2026-05-08 08:54 | 49.91620 | 0.07235 | 37072 ft | 461 kts | 168° |
| 2026-05-08 08:54 | 49.85385 | 0.09672 | 37067 ft | 461 kts | 168° |
| 2026-05-08 08:55 | 49.79160 | 0.12112 | 37072 ft | 461 kts | 168° |
| 2026-05-08 08:55 | 49.72943 | 0.14540 | 37065 ft | 461 kts | 168° |
| 2026-05-08 08:56 | 49.66733 | 0.16961 | 37069 ft | 460 kts | 168° |
| 2026-05-08 08:56 | 49.60573 | 0.19440 | 37073 ft | 459 kts | 168° |
| 2026-05-08 08:57 | 49.54390 | 0.21943 | 37072 ft | 458 kts | 168° |
| 2026-05-08 08:57 | 49.48225 | 0.24423 | 37060 ft | 458 kts | 168° |
| 2026-05-08 08:58 | 49.42061 | 0.26890 | 37051 ft | 457 kts | 168° |
| 2026-05-08 08:58 | 49.35903 | 0.29348 | 37045 ft | 457 kts | 168° |
| 2026-05-08 08:59 | 49.29764 | 0.31800 | 37045 ft | 457 kts | 168° |
| 2026-05-08 08:59 | 49.23664 | 0.34358 | 37044 ft | 457 kts | 167° |
| 2026-05-08 09:00 | 49.17531 | 0.36966 | 37043 ft | 457 kts | 168° |
| 2026-05-08 09:00 | 49.11384 | 0.39560 | 37044 ft | 458 kts | 168° |
| 2026-05-08 09:01 | 49.05229 | 0.42139 | 37042 ft | 459 kts | 168° |
| 2026-05-08 09:01 | 48.99065 | 0.44713 | 37040 ft | 460 kts | 168° |
| 2026-05-08 09:02 | 48.92885 | 0.47289 | 37035 ft | 460 kts | 168° |
| 2026-05-08 09:02 | 48.86700 | 0.49860 | 37036 ft | 461 kts | 168° |
| 2026-05-08 09:03 | 48.80504 | 0.52429 | 37040 ft | 462 kts | 168° |
| 2026-05-08 09:03 | 48.74329 | 0.54921 | 37041 ft | 462 kts | 169° |
| 2026-05-08 09:04 | 48.68084 | 0.57345 | 37033 ft | 463 kts | 169° |
| 2026-05-08 09:04 | 48.61832 | 0.59778 | 37036 ft | 464 kts | 169° |
| 2026-05-08 09:05 | 48.55573 | 0.62222 | 37033 ft | 464 kts | 169° |
| 2026-05-08 09:05 | 48.49313 | 0.64683 | 37027 ft | 465 kts | 168° |
| 2026-05-08 09:06 | 48.43099 | 0.67220 | 37024 ft | 465 kts | 168° |
| 2026-05-08 09:06 | 48.36844 | 0.69776 | 37028 ft | 465 kts | 168° |
| 2026-05-08 09:07 | 48.30596 | 0.72308 | 37025 ft | 465 kts | 168° |
| 2026-05-08 09:07 | 48.24335 | 0.74833 | 37027 ft | 465 kts | 168° |
| 2026-05-08 09:08 | 48.18080 | 0.77303 | 37025 ft | 465 kts | 169° |
| 2026-05-08 09:08 | 48.11812 | 0.79757 | 37023 ft | 465 kts | 169° |
| 2026-05-08 09:09 | 48.05556 | 0.82206 | 37017 ft | 465 kts | 169° |
| 2026-05-08 09:09 | 47.99339 | 0.84638 | 37019 ft | 464 kts | 169° |
| 2026-05-08 09:10 | 47.93085 | 0.87079 | 37020 ft | 464 kts | 169° |
| 2026-05-08 09:10 | 47.86839 | 0.89511 | 37016 ft | 464 kts | 169° |
| 2026-05-08 09:11 | 47.80590 | 0.91936 | 37020 ft | 463 kts | 169° |
| 2026-05-08 09:11 | 47.74346 | 0.94352 | 37009 ft | 463 kts | 169° |
| 2026-05-08 09:12 | 47.68109 | 0.96761 | 37015 ft | 463 kts | 169° |
| 2026-05-08 09:12 | 47.61875 | 0.99163 | 37017 ft | 463 kts | 169° |
| 2026-05-08 09:13 | 47.55671 | 1.01548 | 37015 ft | 463 kts | 169° |
| 2026-05-08 09:13 | 47.49438 | 1.03940 | 37017 ft | 463 kts | 169° |
| 2026-05-08 09:14 | 47.43172 | 1.06179 | 37005 ft | 460 kts | 175° |
| 2026-05-08 09:14 | 47.36849 | 1.06471 | 37022 ft | 453 kts | 186° |
| 2026-05-08 09:15 | 47.30535 | 1.06207 | 37023 ft | 454 kts | 186° |
| 2026-05-08 09:15 | 47.24249 | 1.06004 | 37005 ft | 455 kts | 185° |
| 2026-05-08 09:16 | 47.17907 | 1.05852 | 36996 ft | 455 kts | 185° |
| 2026-05-08 09:16 | 47.11564 | 1.05708 | 36994 ft | 456 kts | 185° |
| 2026-05-08 09:17 | 47.05211 | 1.05561 | 37000 ft | 456 kts | 185° |
| 2026-05-08 09:17 | 46.98859 | 1.05377 | 36981 ft | 456 kts | 186° |
| 2026-05-08 09:18 | 46.92555 | 1.05094 | 36987 ft | 456 kts | 187° |
| 2026-05-08 09:18 | 46.86199 | 1.04804 | 36994 ft | 456 kts | 186° |
| 2026-05-08 09:19 | 46.79847 | 1.04528 | 36989 ft | 456 kts | 186° |
| 2026-05-08 09:19 | 46.73504 | 1.04259 | 36986 ft | 456 kts | 186° |
| 2026-05-08 09:20 | 46.67170 | 1.03991 | 36986 ft | 455 kts | 186° |
| 2026-05-08 09:20 | 46.60831 | 1.03723 | 36983 ft | 455 kts | 187° |
| 2026-05-08 09:21 | 46.54514 | 1.03456 | 36985 ft | 454 kts | 187° |
| 2026-05-08 09:22 | 46.35685 | 1.08620 | 36977 ft | 463 kts | 171° |
| 2026-05-08 09:23 | 46.32554 | 1.09691 | 36976 ft | 462 kts | 172° |
| 2026-05-08 09:23 | 46.26283 | 1.11795 | 36981 ft | 462 kts | 172° |
| 2026-05-08 09:24 | 46.20014 | 1.13874 | 36982 ft | 462 kts | 172° |
| 2026-05-08 09:24 | 46.13751 | 1.15945 | 36991 ft | 462 kts | 172° |
| 2026-05-08 09:25 | 46.07479 | 1.18016 | 36988 ft | 463 kts | 172° |
| 2026-05-08 09:25 | 46.01190 | 1.20088 | 36988 ft | 463 kts | 172° |
| 2026-05-08 09:26 | 45.94900 | 1.22158 | 36997 ft | 463 kts | 172° |
| 2026-05-08 09:26 | 45.88616 | 1.24220 | 36991 ft | 463 kts | 172° |
| 2026-05-08 09:27 | 45.82375 | 1.26263 | 36990 ft | 463 kts | 172° |
| 2026-05-08 09:27 | 45.76078 | 1.28320 | 37003 ft | 463 kts | 172° |
| 2026-05-08 09:28 | 45.70848 | 1.30025 | 36980 ft | 464 kts | 172° |
| 2026-05-08 09:28 | 45.64556 | 1.32072 | 36992 ft | 463 kts | 172° |
| 2026-05-08 09:29 | 45.58273 | 1.34111 | 36982 ft | 463 kts | 172° |
| 2026-05-08 09:29 | 45.51982 | 1.36149 | 36986 ft | 463 kts | 172° |
| 2026-05-08 09:30 | 45.45696 | 1.38180 | 36978 ft | 462 kts | 173° |
| 2026-05-08 09:30 | 45.39419 | 1.40201 | 36981 ft | 461 kts | 173° |
| 2026-05-08 09:31 | 45.33165 | 1.42211 | 36980 ft | 460 kts | 173° |
| 2026-05-08 09:31 | 45.26961 | 1.44201 | 36991 ft | 460 kts | 173° |
| 2026-05-08 09:32 | 45.20728 | 1.46196 | 36987 ft | 459 kts | 173° |
| 2026-05-08 09:32 | 45.14497 | 1.48186 | 36989 ft | 458 kts | 173° |
| 2026-05-08 09:33 | 45.08274 | 1.50169 | 36990 ft | 457 kts | 173° |
| 2026-05-08 09:33 | 45.02074 | 1.52140 | 36993 ft | 457 kts | 173° |
| 2026-05-08 09:34 | 44.95867 | 1.54109 | 36988 ft | 457 kts | 173° |
| 2026-05-08 09:34 | 44.89665 | 1.56072 | 36995 ft | 456 kts | 173° |
| 2026-05-08 09:35 | 44.83518 | 1.58014 | 36992 ft | 456 kts | 173° |
| 2026-05-08 09:35 | 44.77319 | 1.59967 | 36988 ft | 455 kts | 173° |
| 2026-05-08 09:36 | 44.71137 | 1.61911 | 36972 ft | 455 kts | 173° |
| 2026-05-08 09:36 | 44.64942 | 1.63856 | 36980 ft | 455 kts | 173° |
| 2026-05-08 09:37 | 44.58811 | 1.65775 | 36982 ft | 454 kts | 173° |
| 2026-05-08 09:37 | 44.52652 | 1.67700 | 36979 ft | 453 kts | 173° |
| 2026-05-08 09:38 | 44.46490 | 1.69620 | 36987 ft | 452 kts | 173° |
| 2026-05-08 09:38 | 44.40360 | 1.71528 | 36980 ft | 452 kts | 173° |
| 2026-05-08 09:39 | 44.34229 | 1.73432 | 36973 ft | 451 kts | 173° |
| 2026-05-08 09:39 | 44.28104 | 1.75280 | 36977 ft | 448 kts | 175° |
| 2026-05-08 09:40 | 44.21975 | 1.76664 | 36976 ft | 445 kts | 178° |
| 2026-05-08 09:40 | 44.15890 | 1.77930 | 36987 ft | 445 kts | 177° |
| 2026-05-08 09:41 | 44.09778 | 1.79252 | 36973 ft | 444 kts | 177° |
| 2026-05-08 09:41 | 44.03670 | 1.80599 | 36977 ft | 443 kts | 177° |
| 2026-05-08 09:42 | 43.97576 | 1.81940 | 36983 ft | 442 kts | 177° |
| 2026-05-08 09:42 | 43.91508 | 1.82932 | 36979 ft | 437 kts | 182° |
| 2026-05-08 09:43 | 43.85429 | 1.83471 | 36968 ft | 436 kts | 182° |
| 2026-05-08 09:43 | 43.79377 | 1.83994 | 36976 ft | 436 kts | 182° |
| 2026-05-08 09:44 | 43.73363 | 1.84556 | 36973 ft | 435 kts | 182° |
| 2026-05-08 09:44 | 43.67328 | 1.85139 | 36968 ft | 435 kts | 182° |
| 2026-05-08 09:45 | 43.61282 | 1.85725 | 36968 ft | 435 kts | 182° |
| 2026-05-08 09:45 | 43.55242 | 1.86308 | 36973 ft | 434 kts | 182° |
| 2026-05-08 09:46 | 43.49210 | 1.86887 | 36965 ft | 434 kts | 182° |
| 2026-05-08 09:46 | 43.43180 | 1.87466 | 36969 ft | 434 kts | 182° |
| 2026-05-08 09:47 | 43.37152 | 1.88044 | 36963 ft | 433 kts | 182° |
| 2026-05-08 09:47 | 43.34181 | 1.88327 | 36821 ft | 436 kts | 182° |
| 2026-05-08 09:47 | 43.31144 | 1.88615 | 36379 ft | 436 kts | 182° |
| 2026-05-08 09:47 | 43.28118 | 1.88906 | 35734 ft | 436 kts | 182° |
| 2026-05-08 09:48 | 43.25089 | 1.89196 | 35127 ft | 436 kts | 182° |
| 2026-05-08 09:48 | 43.22058 | 1.89487 | 34627 ft | 434 kts | 181° |
| 2026-05-08 09:48 | 43.19064 | 1.89775 | 34194 ft | 430 kts | 182° |
| 2026-05-08 09:48 | 43.16086 | 1.90061 | 33704 ft | 427 kts | 181° |
| 2026-05-08 09:49 | 43.13135 | 1.90343 | 33211 ft | 424 kts | 181° |
| 2026-05-08 09:49 | 43.10197 | 1.90623 | 32750 ft | 420 kts | 181° |
| 2026-05-08 09:49 | 43.07294 | 1.90899 | 32307 ft | 417 kts | 181° |
| 2026-05-08 09:49 | 43.04418 | 1.91172 | 31863 ft | 413 kts | 181° |
| 2026-05-08 09:50 | 43.01562 | 1.91443 | 31435 ft | 410 kts | 181° |
| 2026-05-08 09:50 | 42.98717 | 1.91712 | 31006 ft | 407 kts | 181° |
| 2026-05-08 09:50 | 42.95901 | 1.91978 | 30586 ft | 405 kts | 181° |
| 2026-05-08 09:50 | 42.93104 | 1.92242 | 30169 ft | 402 kts | 181° |
| 2026-05-08 09:51 | 42.90313 | 1.92506 | 29698 ft | 400 kts | 181° |
| 2026-05-08 09:51 | 42.87545 | 1.92767 | 29218 ft | 397 kts | 180° |
| 2026-05-08 09:51 | 42.84801 | 1.93026 | 28774 ft | 394 kts | 180° |
| 2026-05-08 09:51 | 42.82120 | 1.93279 | 28345 ft | 390 kts | 180° |
| 2026-05-08 09:52 | 42.79416 | 1.93533 | 27915 ft | 387 kts | 180° |
| 2026-05-08 09:52 | 42.76739 | 1.93785 | 27485 ft | 385 kts | 180° |
| 2026-05-08 09:52 | 42.74069 | 1.94036 | 27057 ft | 382 kts | 180° |
| 2026-05-08 09:52 | 42.71428 | 1.94284 | 26638 ft | 380 kts | 180° |
| 2026-05-08 09:53 | 42.68798 | 1.94530 | 26232 ft | 378 kts | 180° |
| 2026-05-08 09:53 | 42.66175 | 1.94836 | 25819 ft | 378 kts | 177° |
| 2026-05-08 09:53 | 42.63570 | 1.95317 | 25396 ft | 376 kts | 175° |
| 2026-05-08 09:53 | 42.60987 | 1.95865 | 24991 ft | 375 kts | 175° |
| 2026-05-08 09:54 | 42.58409 | 1.96421 | 24558 ft | 375 kts | 174° |
| 2026-05-08 09:54 | 42.55838 | 1.96967 | 24153 ft | 373 kts | 175° |
| 2026-05-08 09:54 | 42.53276 | 1.97500 | 23714 ft | 373 kts | 175° |
| 2026-05-08 09:54 | 42.50733 | 1.98019 | 23248 ft | 373 kts | 175° |
| 2026-05-08 09:55 | 42.48176 | 1.98536 | 22796 ft | 371 kts | 174° |
| 2026-05-08 09:55 | 42.45633 | 1.99048 | 22361 ft | 368 kts | 174° |
| 2026-05-08 09:55 | 42.43108 | 1.99557 | 21945 ft | 366 kts | 174° |
| 2026-05-08 09:55 | 42.40596 | 2.00061 | 21528 ft | 363 kts | 174° |
| 2026-05-08 09:56 | 42.38104 | 2.00565 | 21127 ft | 361 kts | 172° |
| 2026-05-08 09:56 | 42.35711 | 2.01603 | 20686 ft | 363 kts | 153° |
| 2026-05-08 09:56 | 42.33567 | 2.03395 | 20318 ft | 361 kts | 149° |
| 2026-05-08 09:56 | 42.31472 | 2.05261 | 19906 ft | 360 kts | 148° |
| 2026-05-08 09:57 | 42.27318 | 2.08970 | 19122 ft | 356 kts | 148° |
| 2026-05-08 09:57 | 42.25244 | 2.10796 | 18723 ft | 354 kts | 149° |
| 2026-05-08 09:57 | 42.23180 | 2.12599 | 18328 ft | 353 kts | 148° |
| 2026-05-08 09:58 | 42.21147 | 2.14369 | 17885 ft | 351 kts | 148° |
| 2026-05-08 09:58 | 42.19073 | 2.16171 | 17444 ft | 349 kts | 148° |
| 2026-05-08 09:58 | 42.17041 | 2.17933 | 17040 ft | 346 kts | 148° |
| 2026-05-08 09:58 | 42.15024 | 2.19680 | 16645 ft | 343 kts | 148° |
| 2026-05-08 09:59 | 42.13045 | 2.21393 | 16251 ft | 341 kts | 148° |
| 2026-05-08 09:59 | 42.11062 | 2.23108 | 15877 ft | 338 kts | 148° |
| 2026-05-08 09:59 | 42.09086 | 2.24815 | 15492 ft | 336 kts | 148° |
| 2026-05-08 09:59 | 42.07122 | 2.26511 | 15107 ft | 334 kts | 148° |
| 2026-05-08 10:00 | 42.05168 | 2.28196 | 14734 ft | 332 kts | 148° |
| 2026-05-08 10:00 | 42.03229 | 2.29868 | 14353 ft | 331 kts | 148° |
| 2026-05-08 10:00 | 42.01300 | 2.31530 | 13970 ft | 329 kts | 148° |
| 2026-05-08 10:00 | 41.99369 | 2.33194 | 13560 ft | 328 kts | 148° |
| 2026-05-08 10:01 | 41.97457 | 2.34840 | 13151 ft | 326 kts | 148° |
| 2026-05-08 10:01 | 41.95545 | 2.36485 | 12741 ft | 324 kts | 148° |
| 2026-05-08 10:01 | 41.93661 | 2.38105 | 12359 ft | 321 kts | 148° |
| 2026-05-08 10:01 | 41.91787 | 2.39714 | 11994 ft | 318 kts | 148° |
| 2026-05-08 10:02 | 41.89954 | 2.41287 | 11626 ft | 316 kts | 148° |
| 2026-05-08 10:02 | 41.88113 | 2.42867 | 11251 ft | 313 kts | 148° |
| 2026-05-08 10:02 | 41.86281 | 2.44439 | 10913 ft | 311 kts | 148° |
| 2026-05-08 10:02 | 41.84456 | 2.46001 | 10550 ft | 310 kts | 149° |
| 2026-05-08 10:03 | 41.82654 | 2.47543 | 10385 ft | 303 kts | 149° |
| 2026-05-08 10:03 | 41.80908 | 2.49039 | 10226 ft | 294 kts | 149° |
| 2026-05-08 10:03 | 41.79205 | 2.50496 | 10101 ft | 284 kts | 149° |
| 2026-05-08 10:03 | 41.77568 | 2.51894 | 9933 ft | 277 kts | 149° |
| 2026-05-08 10:04 | 41.75947 | 2.53277 | 9680 ft | 274 kts | 148° |
| 2026-05-08 10:04 | 41.74351 | 2.54642 | 9461 ft | 270 kts | 149° |
| 2026-05-08 10:04 | 41.72779 | 2.55985 | 9240 ft | 266 kts | 149° |
| 2026-05-08 10:04 | 41.71217 | 2.57319 | 9008 ft | 264 kts | 149° |
| 2026-05-08 10:05 | 41.69691 | 2.58620 | 8793 ft | 263 kts | 148° |
| 2026-05-08 10:05 | 41.68149 | 2.59935 | 8574 ft | 263 kts | 149° |
| 2026-05-08 10:05 | 41.66597 | 2.61257 | 8374 ft | 265 kts | 148° |
| 2026-05-08 10:05 | 41.65035 | 2.62548 | 8154 ft | 265 kts | 155° |
| 2026-05-08 10:06 | 41.63256 | 2.63122 | 7918 ft | 265 kts | 179° |
| 2026-05-08 10:06 | 41.61431 | 2.62803 | 7711 ft | 266 kts | 192° |
| 2026-05-08 10:06 | 41.59617 | 2.62249 | 7478 ft | 266 kts | 192° |
| 2026-05-08 10:06 | 41.57828 | 2.61686 | 7237 ft | 263 kts | 192° |
| 2026-05-08 10:07 | 41.56050 | 2.61137 | 7014 ft | 261 kts | 192° |
| 2026-05-08 10:07 | 41.54292 | 2.60605 | 6781 ft | 258 kts | 192° |
| 2026-05-08 10:07 | 41.52547 | 2.60086 | 6557 ft | 255 kts | 191° |
| 2026-05-08 10:07 | 41.50823 | 2.59575 | 6320 ft | 252 kts | 191° |
| 2026-05-08 10:08 | 41.49132 | 2.59076 | 6062 ft | 252 kts | 191° |
| 2026-05-08 10:08 | 41.47485 | 2.58321 | 5782 ft | 253 kts | 212° |
| 2026-05-08 10:08 | 41.46270 | 2.56647 | 5546 ft | 253 kts | 237° |
| 2026-05-08 10:08 | 41.45492 | 2.54540 | 5313 ft | 253 kts | 245° |
| 2026-05-08 10:09 | 41.44823 | 2.52387 | 5136 ft | 248 kts | 246° |
| 2026-05-08 10:09 | 41.44151 | 2.50286 | 4983 ft | 247 kts | 245° |
| 2026-05-08 10:09 | 41.43454 | 2.48191 | 4841 ft | 247 kts | 244° |
| 2026-05-08 10:09 | 41.42752 | 2.46113 | 4678 ft | 248 kts | 244° |
| 2026-05-08 10:10 | 41.42033 | 2.43999 | 4536 ft | 248 kts | 244° |
| 2026-05-08 10:10 | 41.41343 | 2.41974 | 4385 ft | 248 kts | 244° |
| 2026-05-08 10:10 | 41.40630 | 2.39877 | 4234 ft | 248 kts | 244° |
| 2026-05-08 10:10 | 41.39926 | 2.37810 | 4073 ft | 248 kts | 244° |
| 2026-05-08 10:11 | 41.39202 | 2.35682 | 3905 ft | 249 kts | 244° |
| 2026-05-08 10:11 | 41.38485 | 2.33577 | 3731 ft | 250 kts | 244° |
| 2026-05-08 10:11 | 41.37777 | 2.31465 | 3445 ft | 251 kts | 244° |
| 2026-05-08 10:11 | 41.37072 | 2.29363 | 3130 ft | 251 kts | 244° |
| 2026-05-08 10:12 | 41.36354 | 2.27264 | 2773 ft | 247 kts | 244° |
| 2026-05-08 10:12 | 41.35650 | 2.25211 | 2451 ft | 241 kts | 243° |
| 2026-05-08 10:12 | 41.34964 | 2.23212 | 2127 ft | 232 kts | 243° |
| 2026-05-08 10:12 | 41.34319 | 2.21326 | 1811 ft | 217 kts | 243° |
| 2026-05-08 10:13 | 41.33709 | 2.19546 | 1528 ft | 205 kts | 243° |
| 2026-05-08 10:13 | 41.33138 | 2.17877 | 1270 ft | 192 kts | 243° |
| 2026-05-08 10:13 | 41.32600 | 2.16307 | 1010 ft | 180 kts | 244° |
| 2026-05-08 10:13 | 41.32109 | 2.14870 | 810 ft | 162 kts | 244° |
| 2026-05-08 10:14 | 41.31670 | 2.13583 | 577 ft | 147 kts | 244° |
| 2026-05-08 10:14 | 41.31258 | 2.12379 | 379 ft | 141 kts | 243° |
| 2026-05-08 10:14 | 41.30845 | 2.11165 | 207 ft | 146 kts | 244° |
| 2026-05-08 10:14 | 41.30425 | 2.09935 | 31 ft | 144 kts | 243° |
| 2026-05-08 10:15 | 41.30046 | 2.08838 | 20 ft | 114 kts | 245° |
| 2026-05-08 10:15 | 41.29803 | 2.08125 | 19 ft | 44 kts | 245° |
| 2026-05-08 10:15 | 41.29745 | 2.07837 | 15 ft | 26 kts | 270° |
| 2026-05-08 10:15 | 41.29754 | 2.07686 | 14 ft | 10 kts | 281° |
| 2026-05-08 10:16 | 41.29786 | 2.07620 | 13 ft | 3 kts | 330° |
| 2026-05-08 10:16 | 41.29806 | 2.07608 | 13 ft | 3 kts | 335° |
| 2026-05-08 10:16 | 41.29826 | 2.07596 | 14 ft | 3 kts | 335° |
| 2026-05-08 10:16 | 41.29829 | 2.07594 | 14 ft | 0 kts | 335° |
| 2026-05-08 10:17 | 41.29835 | 2.07591 | 14 ft | 4 kts | 336° |
| 2026-05-08 10:17 | 41.29842 | 2.07587 | 14 ft | 2 kts | 338° |
| 2026-05-08 10:17 | 41.29901 | 2.07554 | 14 ft | 11 kts | 336° |